Purple Springs, Canada
Current Conditions -  °F | °C
As of 5:00 AM on Saturday 20 Dec 2014 (Local Time) from CYQL Reporting Station
Clear Clear  
Wind Chill: 24°   Ceiling: Unl
Heat Index: 36°   Visibility: 9mi
Dew Point: 23°   Wind: 24mph
Humidity: 60%   Direction: 250°WSW
Pressure: 29.77"   Gusts: 36mph
Location:  49.81°N, 111.87°W
Report Text: CYQL 201200Z AUTO 25021G31KT 9SM CLR 02/M05 A2977 RMK SLP109
Loading
Personal Weather Stations






























Interactive Weather Map New forecast layout! Learn more

10-Day Weather Forecast

Advertisements
Track Severe Weather on mobile